sensor_id;sensor_type;location;lat;lon;timestamp;P1;durP1;ratioP1;P2;durP2;ratioP2
5117;SDS011;2578;51.622;7.046;2023-07-30T00:01:56;9.90;;;9.20;;
5117;SDS011;2578;51.622;7.046;2023-07-30T00:04:21;9.83;;;9.13;;
5117;SDS011;2578;51.622;7.046;2023-07-30T00:06:48;9.60;;;8.90;;
5117;SDS011;2578;51.622;7.046;2023-07-30T00:09:13;9.90;;;9.20;;
5117;SDS011;2578;51.622;7.046;2023-07-30T00:11:39;10.30;;;9.50;;
5117;SDS011;2578;51.622;7.046;2023-07-30T00:14:04;9.40;;;8.80;;
5117;SDS011;2578;51.622;7.046;2023-07-30T00:16:30;11.00;;;10.10;;
5117;SDS011;2578;51.622;7.046;2023-07-30T00:18:56;8.90;;;8.30;;
5117;SDS011;2578;51.622;7.046;2023-07-30T00:21:21;10.03;;;9.13;;
5117;SDS011;2578;51.622;7.046;2023-07-30T00:23:47;9.10;;;8.40;;
5117;SDS011;2578;51.622;7.046;2023-07-30T00:26:13;8.87;;;8.23;;
5117;SDS011;2578;51.622;7.046;2023-07-30T00:28:38;8.90;;;8.30;;
5117;SDS011;2578;51.622;7.046;2023-07-30T00:31:04;9.17;;;8.47;;
5117;SDS011;2578;51.622;7.046;2023-07-30T00:33:29;8.40;;;7.80;;
5117;SDS011;2578;51.622;7.046;2023-07-30T00:35:55;8.70;;;8.00;;
5117;SDS011;2578;51.622;7.046;2023-07-30T00:38:21;9.30;;;8.50;;
5117;SDS011;2578;51.622;7.046;2023-07-30T00:40:47;8.40;;;7.80;;
5117;SDS011;2578;51.622;7.046;2023-07-30T00:43:12;8.30;;;7.70;;
5117;SDS011;2578;51.622;7.046;2023-07-30T00:45:38;8.17;;;7.57;;
5117;SDS011;2578;51.622;7.046;2023-07-30T00:48:07;8.00;;;7.40;;
5117;SDS011;2578;51.622;7.046;2023-07-30T00:50:34;8.17;;;7.57;;
5117;SDS011;2578;51.622;7.046;2023-07-30T00:52:59;7.97;;;7.37;;
5117;SDS011;2578;51.622;7.046;2023-07-30T00:55:25;7.90;;;7.30;;
5117;SDS011;2578;51.622;7.046;2023-07-30T00:57:51;8.80;;;8.10;;
5117;SDS011;2578;51.622;7.046;2023-07-30T01:00:17;8.03;;;7.43;;
5117;SDS011;2578;51.622;7.046;2023-07-30T01:02:43;8.27;;;7.57;;
5117;SDS011;2578;51.622;7.046;2023-07-30T01:05:08;7.83;;;7.23;;
5117;SDS011;2578;51.622;7.046;2023-07-30T01:07:34;7.90;;;7.30;;
5117;SDS011;2578;51.622;7.046;2023-07-30T01:10:00;7.20;;;6.70;;
5117;SDS011;2578;51.622;7.046;2023-07-30T01:12:27;7.37;;;6.80;;
5117;SDS011;2578;51.622;7.046;2023-07-30T01:14:56;8.13;;;7.37;;
5117;SDS011;2578;51.622;7.046;2023-07-30T01:17:22;8.23;;;6.93;;
5117;SDS011;2578;51.622;7.046;2023-07-30T01:19:48;7.67;;;7.07;;
5117;SDS011;2578;51.622;7.046;2023-07-30T01:22:19;7.57;;;6.67;;
5117;SDS011;2578;51.622;7.046;2023-07-30T01:24:46;7.20;;;6.70;;
5117;SDS011;2578;51.622;7.046;2023-07-30T01:27:14;10.47;;;7.50;;
5117;SDS011;2578;51.622;7.046;2023-07-30T01:29:48;7.53;;;6.83;;
5117;SDS011;2578;51.622;7.046;2023-07-30T01:32:19;7.67;;;7.07;;
5117;SDS011;2578;51.622;7.046;2023-07-30T01:34:54;7.10;;;6.60;;
5117;SDS011;2578;51.622;7.046;2023-07-30T01:37:21;7.60;;;7.00;;
5117;SDS011;2578;51.622;7.046;2023-07-30T01:39:48;7.93;;;7.33;;
5117;SDS011;2578;51.622;7.046;2023-07-30T01:42:14;7.50;;;6.90;;
5117;SDS011;2578;51.622;7.046;2023-07-30T01:44:40;7.70;;;7.10;;
5117;SDS011;2578;51.622;7.046;2023-07-30T01:47:06;8.23;;;7.53;;
5117;SDS011;2578;51.622;7.046;2023-07-30T01:49:32;7.60;;;7.00;;
5117;SDS011;2578;51.622;7.046;2023-07-30T01:51:58;7.40;;;6.80;;
5117;SDS011;2578;51.622;7.046;2023-07-30T01:54:24;7.90;;;7.20;;
5117;SDS011;2578;51.622;7.046;2023-07-30T01:56:49;7.20;;;6.70;;
5117;SDS011;2578;51.622;7.046;2023-07-30T01:59:15;7.27;;;6.67;;
5117;SDS011;2578;51.622;7.046;2023-07-30T02:01:41;6.60;;;6.07;;
5117;SDS011;2578;51.622;7.046;2023-07-30T02:04:07;7.00;;;6.40;;
5117;SDS011;2578;51.622;7.046;2023-07-30T02:06:32;7.00;;;6.50;;
5117;SDS011;2578;51.622;7.046;2023-07-30T02:08:58;7.30;;;6.80;;
5117;SDS011;2578;51.622;7.046;2023-07-30T02:11:23;6.80;;;6.30;;
5117;SDS011;2578;51.622;7.046;2023-07-30T02:13:49;6.90;;;6.30;;
5117;SDS011;2578;51.622;7.046;2023-07-30T02:16:15;7.07;;;6.47;;
5117;SDS011;2578;51.622;7.046;2023-07-30T02:18:40;7.00;;;6.50;;
5117;SDS011;2578;51.622;7.046;2023-07-30T02:21:06;7.23;;;6.63;;
5117;SDS011;2578;51.622;7.046;2023-07-30T02:23:31;7.07;;;6.57;;
5117;SDS011;2578;51.622;7.046;2023-07-30T02:25:57;7.30;;;6.70;;
5117;SDS011;2578;51.622;7.046;2023-07-30T02:28:23;7.50;;;6.90;;
5117;SDS011;2578;51.622;7.046;2023-07-30T02:30:48;6.87;;;6.37;;
5117;SDS011;2578;51.622;7.046;2023-07-30T02:33:14;7.37;;;6.80;;
5117;SDS011;2578;51.622;7.046;2023-07-30T02:35:39;7.10;;;6.50;;
5117;SDS011;2578;51.622;7.046;2023-07-30T02:38:05;7.43;;;6.83;;
5117;SDS011;2578;51.622;7.046;2023-07-30T02:40:31;8.00;;;7.40;;
5117;SDS011;2578;51.622;7.046;2023-07-30T02:42:56;6.80;;;6.30;;
5117;SDS011;2578;51.622;7.046;2023-07-30T02:45:22;8.00;;;7.30;;
5117;SDS011;2578;51.622;7.046;2023-07-30T02:47:47;9.03;;;8.23;;
5117;SDS011;2578;51.622;7.046;2023-07-30T02:50:13;7.63;;;7.03;;
5117;SDS011;2578;51.622;7.046;2023-07-30T02:52:38;10.00;;;7.63;;
5117;SDS011;2578;51.622;7.046;2023-07-30T02:55:04;8.30;;;7.70;;
5117;SDS011;2578;51.622;7.046;2023-07-30T02:57:30;7.40;;;6.80;;
5117;SDS011;2578;51.622;7.046;2023-07-30T02:59:56;8.43;;;7.70;;
5117;SDS011;2578;51.622;7.046;2023-07-30T03:02:22;8.63;;;7.93;;
5117;SDS011;2578;51.622;7.046;2023-07-30T03:04:47;8.17;;;7.57;;
5117;SDS011;2578;51.622;7.046;2023-07-30T03:07:13;8.20;;;7.60;;
5117;SDS011;2578;51.622;7.046;2023-07-30T03:09:39;8.60;;;8.00;;
5117;SDS011;2578;51.622;7.046;2023-07-30T03:12:05;8.50;;;7.90;;
5117;SDS011;2578;51.622;7.046;2023-07-30T03:14:31;9.43;;;8.73;;
5117;SDS011;2578;51.622;7.046;2023-07-30T03:16:56;8.50;;;7.90;;
5117;SDS011;2578;51.622;7.046;2023-07-30T03:19:22;8.87;;;8.27;;
5117;SDS011;2578;51.622;7.046;2023-07-30T03:21:47;9.83;;;9.13;;
5117;SDS011;2578;51.622;7.046;2023-07-30T03:24:13;9.30;;;8.70;;
5117;SDS011;2578;51.622;7.046;2023-07-30T03:26:39;11.20;;;10.30;;
5117;SDS011;2578;51.622;7.046;2023-07-30T03:29:04;10.70;;;9.83;;
5117;SDS011;2578;51.622;7.046;2023-07-30T03:31:30;8.93;;;8.33;;
5117;SDS011;2578;51.622;7.046;2023-07-30T03:33:55;10.93;;;9.23;;
5117;SDS011;2578;51.622;7.046;2023-07-30T03:36:21;9.17;;;8.37;;
5117;SDS011;2578;51.622;7.046;2023-07-30T03:38:46;9.33;;;8.63;;
5117;SDS011;2578;51.622;7.046;2023-07-30T03:41:12;8.80;;;8.10;;
5117;SDS011;2578;51.622;7.046;2023-07-30T03:43:38;7.50;;;6.90;;
5117;SDS011;2578;51.622;7.046;2023-07-30T03:46:03;7.70;;;7.10;;
5117;SDS011;2578;51.622;7.046;2023-07-30T03:48:29;8.20;;;7.60;;
5117;SDS011;2578;51.622;7.046;2023-07-30T03:50:55;8.13;;;7.50;;
5117;SDS011;2578;51.622;7.046;2023-07-30T03:53:21;7.80;;;7.20;;
5117;SDS011;2578;51.622;7.046;2023-07-30T03:55:47;7.60;;;7.00;;
5117;SDS011;2578;51.622;7.046;2023-07-30T03:58:13;7.90;;;7.30;;
5117;SDS011;2578;51.622;7.046;2023-07-30T04:00:39;9.20;;;8.43;;
5117;SDS011;2578;51.622;7.046;2023-07-30T04:03:05;7.83;;;7.20;;
5117;SDS011;2578;51.622;7.046;2023-07-30T04:05:31;9.17;;;8.47;;
5117;SDS011;2578;51.622;7.046;2023-07-30T04:07:57;23.93;;;9.60;;
5117;SDS011;2578;51.622;7.046;2023-07-30T04:10:22;10.10;;;9.07;;
5117;SDS011;2578;51.622;7.046;2023-07-30T04:12:48;8.30;;;7.70;;
5117;SDS011;2578;51.622;7.046;2023-07-30T04:15:17;8.00;;;7.40;;
5117;SDS011;2578;51.622;7.046;2023-07-30T04:17:42;8.50;;;7.90;;
5117;SDS011;2578;51.622;7.046;2023-07-30T04:20:08;10.70;;;9.70;;
5117;SDS011;2578;51.622;7.046;2023-07-30T04:22:35;27.67;;;12.10;;
5117;SDS011;2578;51.622;7.046;2023-07-30T04:25:01;8.53;;;7.73;;
5117;SDS011;2578;51.622;7.046;2023-07-30T04:27:27;8.50;;;7.80;;
5117;SDS011;2578;51.622;7.046;2023-07-30T04:29:53;8.30;;;7.70;;
5117;SDS011;2578;51.622;7.046;2023-07-30T04:32:18;8.00;;;7.40;;
5117;SDS011;2578;51.622;7.046;2023-07-30T04:34:44;8.43;;;7.83;;
5117;SDS011;2578;51.622;7.046;2023-07-30T04:37:09;8.37;;;7.77;;
5117;SDS011;2578;51.622;7.046;2023-07-30T04:39:35;8.60;;;7.90;;
5117;SDS011;2578;51.622;7.046;2023-07-30T04:42:01;7.60;;;7.00;;
5117;SDS011;2578;51.622;7.046;2023-07-30T04:44:27;8.30;;;7.60;;
5117;SDS011;2578;51.622;7.046;2023-07-30T04:46:53;9.60;;;8.80;;
5117;SDS011;2578;51.622;7.046;2023-07-30T04:49:19;8.23;;;7.63;;
5117;SDS011;2578;51.622;7.046;2023-07-30T04:51:44;8.70;;;8.00;;
5117;SDS011;2578;51.622;7.046;2023-07-30T04:54:10;14.60;;;9.20;;
5117;SDS011;2578;51.622;7.046;2023-07-30T04:56:36;39.07;;;10.67;;
5117;SDS011;2578;51.622;7.046;2023-07-30T04:59:01;11.10;;;9.20;;
5117;SDS011;2578;51.622;7.046;2023-07-30T05:01:27;8.60;;;8.00;;
5117;SDS011;2578;51.622;7.046;2023-07-30T05:03:53;9.87;;;9.17;;
5117;SDS011;2578;51.622;7.046;2023-07-30T05:06:19;12.63;;;11.20;;
5117;SDS011;2578;51.622;7.046;2023-07-30T05:08:44;8.60;;;8.00;;
5117;SDS011;2578;51.622;7.046;2023-07-30T05:11:10;8.43;;;7.80;;
5117;SDS011;2578;51.622;7.046;2023-07-30T05:13:37;10.23;;;9.17;;
5117;SDS011;2578;51.622;7.046;2023-07-30T05:16:02;10.00;;;9.10;;
5117;SDS011;2578;51.622;7.046;2023-07-30T05:18:28;16.07;;;12.90;;
5117;SDS011;2578;51.622;7.046;2023-07-30T05:20:54;18.00;;;10.60;;
5117;SDS011;2578;51.622;7.046;2023-07-30T05:23:20;11.93;;;10.73;;
5117;SDS011;2578;51.622;7.046;2023-07-30T05:25:45;8.57;;;7.90;;
5117;SDS011;2578;51.622;7.046;2023-07-30T05:28:11;9.60;;;8.80;;
5117;SDS011;2578;51.622;7.046;2023-07-30T05:30:37;8.60;;;7.90;;
5117;SDS011;2578;51.622;7.046;2023-07-30T05:33:03;11.47;;;8.47;;
5117;SDS011;2578;51.622;7.046;2023-07-30T05:35:29;10.93;;;9.10;;
5117;SDS011;2578;51.622;7.046;2023-07-30T05:37:54;10.30;;;9.50;;
5117;SDS011;2578;51.622;7.046;2023-07-30T05:40:20;12.00;;;9.97;;
5117;SDS011;2578;51.622;7.046;2023-07-30T05:42:46;8.40;;;7.80;;
5117;SDS011;2578;51.622;7.046;2023-07-30T05:45:12;9.63;;;8.93;;
5117;SDS011;2578;51.622;7.046;2023-07-30T05:47:37;8.70;;;8.10;;
5117;SDS011;2578;51.622;7.046;2023-07-30T05:50:03;10.90;;;9.30;;
5117;SDS011;2578;51.622;7.046;2023-07-30T05:52:29;8.53;;;7.93;;
5117;SDS011;2578;51.622;7.046;2023-07-30T05:54:55;9.90;;;8.90;;
5117;SDS011;2578;51.622;7.046;2023-07-30T05:57:21;9.80;;;8.90;;
5117;SDS011;2578;51.622;7.046;2023-07-30T05:59:46;9.13;;;8.30;;
5117;SDS011;2578;51.622;7.046;2023-07-30T06:02:12;7.77;;;7.17;;
5117;SDS011;2578;51.622;7.046;2023-07-30T06:04:37;9.10;;;8.27;;
5117;SDS011;2578;51.622;7.046;2023-07-30T06:07:03;16.43;;;12.13;;
5117;SDS011;2578;51.622;7.046;2023-07-30T06:09:29;14.13;;;11.03;;
5117;SDS011;2578;51.622;7.046;2023-07-30T06:11:56;10.03;;;9.03;;
5117;SDS011;2578;51.622;7.046;2023-07-30T06:14:25;13.40;;;10.57;;
5117;SDS011;2578;51.622;7.046;2023-07-30T06:16:51;17.77;;;9.87;;
5117;SDS011;2578;51.622;7.046;2023-07-30T06:19:17;22.00;;;10.97;;
5117;SDS011;2578;51.622;7.046;2023-07-30T06:21:43;8.13;;;7.53;;
5117;SDS011;2578;51.622;7.046;2023-07-30T06:24:08;10.97;;;9.90;;
5117;SDS011;2578;51.622;7.046;2023-07-30T06:26:34;13.40;;;9.93;;
5117;SDS011;2578;51.622;7.046;2023-07-30T06:29:00;8.40;;;7.80;;
5117;SDS011;2578;51.622;7.046;2023-07-30T06:31:25;8.43;;;7.80;;
5117;SDS011;2578;51.622;7.046;2023-07-30T06:33:51;8.67;;;7.97;;
5117;SDS011;2578;51.622;7.046;2023-07-30T06:36:17;11.90;;;10.70;;
5117;SDS011;2578;51.622;7.046;2023-07-30T06:38:42;8.33;;;7.53;;
5117;SDS011;2578;51.622;7.046;2023-07-30T06:41:08;14.33;;;11.20;;
5117;SDS011;2578;51.622;7.046;2023-07-30T06:43:33;12.53;;;9.90;;
5117;SDS011;2578;51.622;7.046;2023-07-30T06:45:59;9.53;;;8.73;;
5117;SDS011;2578;51.622;7.046;2023-07-30T06:48:25;14.70;;;9.83;;
5117;SDS011;2578;51.622;7.046;2023-07-30T06:50:50;8.97;;;8.33;;
5117;SDS011;2578;51.622;7.046;2023-07-30T06:53:16;9.33;;;8.53;;
5117;SDS011;2578;51.622;7.046;2023-07-30T06:55:42;12.77;;;9.40;;
5117;SDS011;2578;51.622;7.046;2023-07-30T06:58:07;8.90;;;8.20;;
5117;SDS011;2578;51.622;7.046;2023-07-30T07:00:33;13.93;;;10.63;;
5117;SDS011;2578;51.622;7.046;2023-07-30T07:02:59;19.20;;;10.23;;
5117;SDS011;2578;51.622;7.046;2023-07-30T07:05:24;21.80;;;9.03;;
5117;SDS011;2578;51.622;7.046;2023-07-30T07:07:50;9.07;;;8.17;;
5117;SDS011;2578;51.622;7.046;2023-07-30T07:10:15;17.10;;;9.47;;
5117;SDS011;2578;51.622;7.046;2023-07-30T07:12:41;12.20;;;6.57;;
5117;SDS011;2578;51.622;7.046;2023-07-30T07:15:07;7.50;;;6.80;;
5117;SDS011;2578;51.622;7.046;2023-07-30T07:17:33;7.30;;;6.70;;
5117;SDS011;2578;51.622;7.046;2023-07-30T07:20:00;7.57;;;6.53;;
5117;SDS011;2578;51.622;7.046;2023-07-30T07:22:25;8.23;;;7.43;;
5117;SDS011;2578;51.622;7.046;2023-07-30T07:24:52;7.40;;;6.63;;
5117;SDS011;2578;51.622;7.046;2023-07-30T07:27:18;11.10;;;8.37;;
5117;SDS011;2578;51.622;7.046;2023-07-30T07:29:43;7.17;;;6.53;;
5117;SDS011;2578;51.622;7.046;2023-07-30T07:32:09;5.90;;;5.40;;
5117;SDS011;2578;51.622;7.046;2023-07-30T07:34:35;6.50;;;6.00;;
5117;SDS011;2578;51.622;7.046;2023-07-30T07:37:01;8.30;;;7.50;;
5117;SDS011;2578;51.622;7.046;2023-07-30T07:39:27;10.50;;;9.60;;
5117;SDS011;2578;51.622;7.046;2023-07-30T07:41:53;7.60;;;7.00;;
5117;SDS011;2578;51.622;7.046;2023-07-30T07:44:18;7.73;;;7.13;;
5117;SDS011;2578;51.622;7.046;2023-07-30T07:46:44;7.00;;;6.50;;
5117;SDS011;2578;51.622;7.046;2023-07-30T07:49:09;8.23;;;7.63;;
5117;SDS011;2578;51.622;7.046;2023-07-30T07:51:35;8.10;;;7.50;;
5117;SDS011;2578;51.622;7.046;2023-07-30T07:54:01;8.13;;;7.53;;
5117;SDS011;2578;51.622;7.046;2023-07-30T07:56:26;9.10;;;8.40;;
5117;SDS011;2578;51.622;7.046;2023-07-30T07:58:52;9.73;;;8.80;;
5117;SDS011;2578;51.622;7.046;2023-07-30T08:01:18;8.47;;;7.80;;
5117;SDS011;2578;51.622;7.046;2023-07-30T08:03:43;9.00;;;8.30;;
5117;SDS011;2578;51.622;7.046;2023-07-30T08:06:09;8.70;;;8.10;;
5117;SDS011;2578;51.622;7.046;2023-07-30T08:08:35;9.83;;;9.13;;
5117;SDS011;2578;51.622;7.046;2023-07-30T08:11:06;9.30;;;8.60;;
5117;SDS011;2578;51.622;7.046;2023-07-30T08:13:33;21.73;;;9.80;;
5117;SDS011;2578;51.622;7.046;2023-07-30T08:16:00;14.67;;;13.17;;
5117;SDS011;2578;51.622;7.046;2023-07-30T08:18:26;9.63;;;8.93;;
5117;SDS011;2578;51.622;7.046;2023-07-30T08:20:51;9.57;;;8.87;;
5117;SDS011;2578;51.622;7.046;2023-07-30T08:23:17;11.30;;;10.40;;
5117;SDS011;2578;51.622;7.046;2023-07-30T08:25:43;10.40;;;9.60;;
5117;SDS011;2578;51.622;7.046;2023-07-30T08:28:08;10.47;;;9.43;;
5117;SDS011;2578;51.622;7.046;2023-07-30T08:30:34;11.70;;;10.90;;
5117;SDS011;2578;51.622;7.046;2023-07-30T08:32:59;11.13;;;10.43;;
5117;SDS011;2578;51.622;7.046;2023-07-30T08:35:25;13.87;;;12.83;;
5117;SDS011;2578;51.622;7.046;2023-07-30T08:37:52;13.20;;;12.40;;
5117;SDS011;2578;51.622;7.046;2023-07-30T08:40:17;13.40;;;12.50;;
5117;SDS011;2578;51.622;7.046;2023-07-30T08:42:43;14.83;;;13.53;;
5117;SDS011;2578;51.622;7.046;2023-07-30T08:45:09;11.40;;;10.70;;
5117;SDS011;2578;51.622;7.046;2023-07-30T08:47:35;12.40;;;11.37;;
5117;SDS011;2578;51.622;7.046;2023-07-30T08:50:00;11.37;;;10.67;;
5117;SDS011;2578;51.622;7.046;2023-07-30T08:52:26;13.77;;;12.57;;
5117;SDS011;2578;51.622;7.046;2023-07-30T08:54:54;10.37;;;9.60;;
5117;SDS011;2578;51.622;7.046;2023-07-30T08:57:22;12.73;;;11.50;;
5117;SDS011;2578;51.622;7.046;2023-07-30T08:59:58;10.13;;;9.43;;
5117;SDS011;2578;51.622;7.046;2023-07-30T09:02:33;12.23;;;10.43;;
5117;SDS011;2578;51.622;7.046;2023-07-30T09:05:02;10.03;;;9.27;;
5117;SDS011;2578;51.622;7.046;2023-07-30T09:07:30;10.40;;;9.70;;
5117;SDS011;2578;51.622;7.046;2023-07-30T09:09:56;11.17;;;10.37;;
5117;SDS011;2578;51.622;7.046;2023-07-30T09:12:34;12.13;;;11.23;;
5117;SDS011;2578;51.622;7.046;2023-07-30T09:15:06;11.37;;;10.67;;
5117;SDS011;2578;51.622;7.046;2023-07-30T09:17:36;14.93;;;13.47;;
5117;SDS011;2578;51.622;7.046;2023-07-30T09:20:02;14.73;;;13.50;;
5117;SDS011;2578;51.622;7.046;2023-07-30T09:22:30;15.60;;;14.33;;
5117;SDS011;2578;51.622;7.046;2023-07-30T09:25:06;13.60;;;12.60;;
5117;SDS011;2578;51.622;7.046;2023-07-30T09:27:33;13.50;;;12.40;;
5117;SDS011;2578;51.622;7.046;2023-07-30T09:29:59;14.40;;;13.40;;
5117;SDS011;2578;51.622;7.046;2023-07-30T09:32:26;13.13;;;12.03;;
5117;SDS011;2578;51.622;7.046;2023-07-30T09:35:10;13.40;;;12.50;;
5117;SDS011;2578;51.622;7.046;2023-07-30T09:37:36;15.77;;;14.33;;
5117;SDS011;2578;51.622;7.046;2023-07-30T09:40:06;15.63;;;14.53;;
5117;SDS011;2578;51.622;7.046;2023-07-30T09:42:42;15.63;;;14.53;;
5117;SDS011;2578;51.622;7.046;2023-07-30T09:45:16;18.17;;;16.47;;
5117;SDS011;2578;51.622;7.046;2023-07-30T09:47:52;15.13;;;14.13;;
5117;SDS011;2578;51.622;7.046;2023-07-30T09:50:21;17.20;;;15.80;;
5117;SDS011;2578;51.622;7.046;2023-07-30T09:52:47;16.60;;;15.33;;
5117;SDS011;2578;51.622;7.046;2023-07-30T09:55:15;17.27;;;15.83;;
5117;SDS011;2578;51.622;7.046;2023-07-30T09:57:41;19.43;;;17.83;;
5117;SDS011;2578;51.622;7.046;2023-07-30T10:00:06;17.80;;;16.40;;
5117;SDS011;2578;51.622;7.046;2023-07-30T10:02:37;16.60;;;15.40;;
5117;SDS011;2578;51.622;7.046;2023-07-30T10:05:07;17.77;;;16.47;;
5117;SDS011;2578;51.622;7.046;2023-07-30T10:07:36;18.00;;;16.23;;
5117;SDS011;2578;51.622;7.046;2023-07-30T10:10:07;18.03;;;16.37;;
5117;SDS011;2578;51.622;7.046;2023-07-30T10:12:34;16.93;;;15.47;;
5117;SDS011;2578;51.622;7.046;2023-07-30T10:15:01;16.63;;;15.53;;
5117;SDS011;2578;51.622;7.046;2023-07-30T10:17:27;17.90;;;16.40;;
5117;SDS011;2578;51.622;7.046;2023-07-30T10:19:53;17.17;;;16.00;;
5117;SDS011;2578;51.622;7.046;2023-07-30T10:22:23;17.70;;;16.50;;
5117;SDS011;2578;51.622;7.046;2023-07-30T10:27:48;17.17;;;15.97;;
5117;SDS011;2578;51.622;7.046;2023-07-30T10:30:15;17.23;;;16.03;;
5117;SDS011;2578;51.622;7.046;2023-07-30T10:32:43;17.83;;;16.63;;
5117;SDS011;2578;51.622;7.046;2023-07-30T10:38:19;17.53;;;16.20;;
5117;SDS011;2578;51.622;7.046;2023-07-30T10:41:02;17.23;;;15.93;;
5117;SDS011;2578;51.622;7.046;2023-07-30T10:43:30;15.73;;;14.73;;
5117;SDS011;2578;51.622;7.046;2023-07-30T10:45:56;15.03;;;14.03;;
5117;SDS011;2578;51.622;7.046;2023-07-30T10:48:31;14.30;;;13.40;;
5117;SDS011;2578;51.622;7.046;2023-07-30T10:51:02;14.60;;;13.60;;
5117;SDS011;2578;51.622;7.046;2023-07-30T10:53:32;14.10;;;13.20;;
5117;SDS011;2578;51.622;7.046;2023-07-30T10:55:58;15.60;;;14.60;;
5117;SDS011;2578;51.622;7.046;2023-07-30T10:58:26;16.50;;;15.40;;
5117;SDS011;2578;51.622;7.046;2023-07-30T11:00:56;18.43;;;16.43;;
5117;SDS011;2578;51.622;7.046;2023-07-30T11:03:24;19.07;;;17.67;;
5117;SDS011;2578;51.622;7.046;2023-07-30T11:05:53;19.07;;;17.67;;
5117;SDS011;2578;51.622;7.046;2023-07-30T11:08:19;20.30;;;18.70;;
5117;SDS011;2578;51.622;7.046;2023-07-30T11:10:46;20.30;;;18.80;;
5117;SDS011;2578;51.622;7.046;2023-07-30T11:13:15;21.60;;;20.00;;
5117;SDS011;2578;51.622;7.046;2023-07-30T11:15:42;22.30;;;20.50;;
5117;SDS011;2578;51.622;7.046;2023-07-30T11:18:08;23.43;;;21.67;;
5117;SDS011;2578;51.622;7.046;2023-07-30T11:20:35;23.30;;;21.60;;
5117;SDS011;2578;51.622;7.046;2023-07-30T11:23:01;23.27;;;21.40;;
5117;SDS011;2578;51.622;7.046;2023-07-30T11:25:27;21.60;;;20.03;;
5117;SDS011;2578;51.622;7.046;2023-07-30T11:27:53;20.23;;;18.83;;
5117;SDS011;2578;51.622;7.046;2023-07-30T11:30:18;22.60;;;20.97;;
5117;SDS011;2578;51.622;7.046;2023-07-30T11:32:44;19.90;;;18.50;;
5117;SDS011;2578;51.622;7.046;2023-07-30T11:35:10;21.93;;;20.20;;
5117;SDS011;2578;51.622;7.046;2023-07-30T11:37:37;20.10;;;18.60;;
5117;SDS011;2578;51.622;7.046;2023-07-30T11:40:11;20.27;;;18.67;;
5117;SDS011;2578;51.622;7.046;2023-07-30T11:42:37;20.00;;;18.50;;
5117;SDS011;2578;51.622;7.046;2023-07-30T11:45:16;20.70;;;19.10;;
5117;SDS011;2578;51.622;7.046;2023-07-30T11:47:46;19.30;;;18.00;;
5117;SDS011;2578;51.622;7.046;2023-07-30T11:50:12;19.80;;;18.40;;
5117;SDS011;2578;51.622;7.046;2023-07-30T11:52:52;19.97;;;18.37;;
5117;SDS011;2578;51.622;7.046;2023-07-30T11:55:21;19.27;;;17.87;;
5117;SDS011;2578;51.622;7.046;2023-07-30T11:57:49;20.50;;;17.43;;
5117;SDS011;2578;51.622;7.046;2023-07-30T12:00:15;17.70;;;16.50;;
5117;SDS011;2578;51.622;7.046;2023-07-30T12:02:41;17.67;;;16.47;;
5117;SDS011;2578;51.622;7.046;2023-07-30T12:05:09;18.63;;;17.33;;
5117;SDS011;2578;51.622;7.046;2023-07-30T12:07:39;18.60;;;17.30;;
5117;SDS011;2578;51.622;7.046;2023-07-30T12:10:07;21.50;;;19.53;;
5117;SDS011;2578;51.622;7.046;2023-07-30T12:12:36;18.73;;;17.30;;
5117;SDS011;2578;51.622;7.046;2023-07-30T12:15:10;18.90;;;17.50;;
5117;SDS011;2578;51.622;7.046;2023-07-30T12:17:37;19.00;;;17.70;;
5117;SDS011;2578;51.622;7.046;2023-07-30T12:20:04;19.40;;;17.80;;
5117;SDS011;2578;51.622;7.046;2023-07-30T12:22:32;17.40;;;15.90;;
5117;SDS011;2578;51.622;7.046;2023-07-30T12:24:59;18.50;;;16.60;;
5117;SDS011;2578;51.622;7.046;2023-07-30T12:27:25;15.63;;;14.43;;
5117;SDS011;2578;51.622;7.046;2023-07-30T12:29:51;13.27;;;12.40;;
5117;SDS011;2578;51.622;7.046;2023-07-30T12:32:17;12.00;;;10.90;;
5117;SDS011;2578;51.622;7.046;2023-07-30T12:34:42;12.30;;;11.10;;
5117;SDS011;2578;51.622;7.046;2023-07-30T12:37:08;9.43;;;8.73;;
5117;SDS011;2578;51.622;7.046;2023-07-30T12:39:34;10.07;;;9.37;;
5117;SDS011;2578;51.622;7.046;2023-07-30T12:42:00;11.30;;;10.50;;
5117;SDS011;2578;51.622;7.046;2023-07-30T12:44:25;12.93;;;11.77;;
5117;SDS011;2578;51.622;7.046;2023-07-30T12:46:51;12.60;;;11.70;;
5117;SDS011;2578;51.622;7.046;2023-07-30T12:49:16;11.67;;;10.87;;
5117;SDS011;2578;51.622;7.046;2023-07-30T12:51:43;11.80;;;11.00;;
5117;SDS011;2578;51.622;7.046;2023-07-30T12:54:08;11.00;;;10.20;;
5117;SDS011;2578;51.622;7.046;2023-07-30T12:56:34;11.00;;;10.30;;
5117;SDS011;2578;51.622;7.046;2023-07-30T12:59:00;10.37;;;9.67;;
5117;SDS011;2578;51.622;7.046;2023-07-30T13:01:26;11.93;;;11.03;;
5117;SDS011;2578;51.622;7.046;2023-07-30T13:03:51;11.27;;;10.47;;
5117;SDS011;2578;51.622;7.046;2023-07-30T13:06:19;11.37;;;10.33;;
5117;SDS011;2578;51.622;7.046;2023-07-30T13:08:45;10.00;;;9.20;;
5117;SDS011;2578;51.622;7.046;2023-07-30T13:11:12;8.63;;;8.03;;
5117;SDS011;2578;51.622;7.046;2023-07-30T13:13:38;8.30;;;7.70;;
5117;SDS011;2578;51.622;7.046;2023-07-30T13:16:03;10.37;;;9.57;;
5117;SDS011;2578;51.622;7.046;2023-07-30T13:18:29;12.57;;;11.67;;
5117;SDS011;2578;51.622;7.046;2023-07-30T13:20:55;14.03;;;13.03;;
5117;SDS011;2578;51.622;7.046;2023-07-30T13:23:20;18.67;;;15.43;;
5117;SDS011;2578;51.622;7.046;2023-07-30T13:25:46;18.33;;;16.80;;
5117;SDS011;2578;51.622;7.046;2023-07-30T13:28:12;19.40;;;18.20;;
5117;SDS011;2578;51.622;7.046;2023-07-30T13:30:37;19.30;;;18.10;;
5117;SDS011;2578;51.622;7.046;2023-07-30T13:33:03;21.43;;;19.83;;
5117;SDS011;2578;51.622;7.046;2023-07-30T13:35:28;18.23;;;17.13;;
5117;SDS011;2578;51.622;7.046;2023-07-30T13:37:54;19.50;;;18.30;;
5117;SDS011;2578;51.622;7.046;2023-07-30T13:40:20;16.30;;;15.30;;
5117;SDS011;2578;51.622;7.046;2023-07-30T13:42:45;17.20;;;16.20;;
5117;SDS011;2578;51.622;7.046;2023-07-30T13:45:11;17.33;;;16.00;;
5117;SDS011;2578;51.622;7.046;2023-07-30T13:47:36;16.10;;;15.10;;
5117;SDS011;2578;51.622;7.046;2023-07-30T13:50:02;14.37;;;13.40;;
5117;SDS011;2578;51.622;7.046;2023-07-30T13:52:28;13.40;;;12.50;;
5117;SDS011;2578;51.622;7.046;2023-07-30T13:54:54;16.90;;;15.80;;
5117;SDS011;2578;51.622;7.046;2023-07-30T13:57:23;16.33;;;15.23;;
5117;SDS011;2578;51.622;7.046;2023-07-30T13:59:52;15.90;;;14.83;;
5117;SDS011;2578;51.622;7.046;2023-07-30T14:02:18;17.70;;;16.40;;
5117;SDS011;2578;51.622;7.046;2023-07-30T14:04:44;18.30;;;16.57;;
5117;SDS011;2578;51.622;7.046;2023-07-30T14:07:10;18.10;;;16.80;;
5117;SDS011;2578;51.622;7.046;2023-07-30T14:09:35;18.67;;;17.27;;
5117;SDS011;2578;51.622;7.046;2023-07-30T14:12:04;21.20;;;17.53;;
5117;SDS011;2578;51.622;7.046;2023-07-30T14:14:30;18.13;;;16.83;;
5117;SDS011;2578;51.622;7.046;2023-07-30T14:16:56;37.73;;;18.53;;
5117;SDS011;2578;51.622;7.046;2023-07-30T14:19:22;20.67;;;19.17;;
5117;SDS011;2578;51.622;7.046;2023-07-30T14:21:48;20.60;;;19.10;;
5117;SDS011;2578;51.622;7.046;2023-07-30T14:24:14;20.10;;;18.70;;
5117;SDS011;2578;51.622;7.046;2023-07-30T14:26:39;21.20;;;19.30;;
5117;SDS011;2578;51.622;7.046;2023-07-30T14:29:05;19.30;;;17.90;;
5117;SDS011;2578;51.622;7.046;2023-07-30T14:31:31;19.30;;;17.90;;
5117;SDS011;2578;51.622;7.046;2023-07-30T14:33:56;19.70;;;18.30;;
5117;SDS011;2578;51.622;7.046;2023-07-30T14:36:23;19.40;;;18.00;;
5117;SDS011;2578;51.622;7.046;2023-07-30T14:38:48;20.10;;;18.60;;
5117;SDS011;2578;51.622;7.046;2023-07-30T14:41:14;19.97;;;18.47;;
5117;SDS011;2578;51.622;7.046;2023-07-30T14:43:40;20.33;;;18.83;;
5117;SDS011;2578;51.622;7.046;2023-07-30T14:46:05;19.90;;;18.50;;
5117;SDS011;2578;51.622;7.046;2023-07-30T14:48:31;20.23;;;18.77;;
5117;SDS011;2578;51.622;7.046;2023-07-30T14:50:57;20.00;;;18.60;;
5117;SDS011;2578;51.622;7.046;2023-07-30T14:53:23;20.30;;;18.80;;
5117;SDS011;2578;51.622;7.046;2023-07-30T14:55:49;20.50;;;19.00;;
5117;SDS011;2578;51.622;7.046;2023-07-30T14:58:14;20.23;;;18.63;;
5117;SDS011;2578;51.622;7.046;2023-07-30T15:00:40;20.37;;;18.83;;
5117;SDS011;2578;51.622;7.046;2023-07-30T15:03:06;19.27;;;17.90;;